Time;durP1;ratioP1;P1;durP2;ratioP2;P2;SDS_P1;SDS_P2;PMS_P1;PMS_P2;Temp;Humidity;BMP_temperature;BMP_pressure;BME280_temperature;BME280_humidity;BME280_pressure;Samples;Min_cycle;Max_cycle;Signal;HPM_P1;HPM_P2
2022/03/16 00:01:08;;;;;;;36.08;20.40;;;10.00;84.10;;;;;;5052338;28;20555;-61
2022/03/16 00:03:34;;;;;;;33.20;19.50;;;10.00;84.10;;;;;;5052360;28;20205;-61
2022/03/16 00:06:01;;;;;;;29.67;18.40;;;10.00;84.00;;;;;;5052421;28;20221;-61
2022/03/16 00:08:29;;;;;;;36.75;20.13;;;10.10;83.90;;;;;;5051134;28;20239;-61
2022/03/16 00:10:56;;;;;;;37.53;20.88;;;10.10;83.80;;;;;;5052101;28;20660;-61
2022/03/16 00:13:25;;;;;;;34.55;19.17;;;10.10;83.70;;;;;;5052262;28;20324;-60
2022/03/16 00:15:51;;;;;;;32.65;19.52;;;10.00;83.60;;;;;;5052008;28;20208;-61
2022/03/16 00:18:19;;;;;;;33.72;19.48;;;10.00;83.70;;;;;;5052169;28;20214;-61
2022/03/16 00:20:47;;;;;;;31.80;19.42;;;10.10;83.40;;;;;;5052169;28;20206;-61
2022/03/16 00:23:14;;;;;;;37.50;22.17;;;10.00;83.40;;;;;;5050851;28;20594;-60
2022/03/16 00:25:41;;;;;;;37.58;21.27;;;10.10;83.30;;;;;;5054910;28;20707;-61
2022/03/16 00:28:08;;;;;;;31.98;20.02;;;10.00;83.10;;;;;;5055761;28;20229;-59
2022/03/16 00:30:37;;;;;;;41.42;22.45;;;10.00;83.40;;;;;;5055569;28;20313;-60
2022/03/16 00:33:04;;;;;;;36.75;21.38;;;10.00;83.40;;;;;;5055592;28;20239;-60
2022/03/16 00:35:34;;;;;;;32.08;20.40;;;10.00;83.60;;;;;;5055643;28;20201;-61
2022/03/16 00:38:01;;;;;;;32.97;19.50;;;10.00;83.60;;;;;;5054176;28;20208;-58
2022/03/16 00:40:27;;;;;;;30.08;18.77;;;9.90;83.80;;;;;;5055555;28;20248;-59
2022/03/16 00:42:54;;;;;;;31.10;19.05;;;9.80;84.20;;;;;;5055531;28;20256;-60
2022/03/16 00:45:21;;;;;;;28.63;18.20;;;9.70;84.90;;;;;;5055366;28;20212;-59
2022/03/16 00:47:50;;;;;;;35.70;20.30;;;9.80;84.80;;;;;;5055151;28;20578;-60
2022/03/16 00:50:17;;;;;;;31.60;18.40;;;9.80;84.80;;;;;;5055050;28;20292;-60
2022/03/16 00:52:44;;;;;;;31.92;19.48;;;9.80;84.80;;;;;;5053860;28;20229;-58
2022/03/16 00:55:11;;;;;;;38.60;21.73;;;9.90;84.60;;;;;;5055210;28;20558;-59
2022/03/16 00:57:38;;;;;;;37.38;19.58;;;9.80;84.90;;;;;;5055275;28;20205;-58
2022/03/16 01:00:06;;;;;;;36.88;21.50;;;9.70;85.10;;;;;;5055048;28;20201;-60
2022/03/16 01:02:33;;;;;;;32.03;20.48;;;9.70;85.30;;;;;;5055038;28;20205;-58
2022/03/16 01:05:01;;;;;;;37.35;21.10;;;9.70;85.30;;;;;;5054996;28;20216;-58
2022/03/16 01:07:28;;;;;;;35.42;19.90;;;9.60;85.50;;;;;;5053947;28;20197;-58
2022/03/16 01:09:55;;;;;;;39.15;21.63;;;9.70;85.40;;;;;;5055032;28;20209;-58
2022/03/16 01:12:22;;;;;;;36.25;22.33;;;9.70;85.10;;;;;;5054954;28;20296;-59
2022/03/16 01:14:49;;;;;;;36.78;21.25;;;9.60;85.20;;;;;;5054877;28;20205;-58
2022/03/16 01:17:16;;;;;;;33.67;20.58;;;9.60;85.40;;;;;;5054608;28;20579;-58
2022/03/16 01:19:43;;;;;;;35.63;21.38;;;9.60;85.40;;;;;;5054767;28;20241;-58
2022/03/16 01:22:11;;;;;;;39.58;22.77;;;9.60;85.40;;;;;;5054622;28;20226;-59
2022/03/16 01:24:38;;;;;;;39.08;21.90;;;9.60;85.50;;;;;;5053517;28;20581;-59
2022/03/16 01:27:05;;;;;;;36.47;22.08;;;9.70;85.40;;;;;;5054574;28;20664;-58
2022/03/16 01:29:32;;;;;;;40.88;22.00;;;9.80;85.20;;;;;;5054611;28;20205;-58
2022/03/16 01:32:00;;;;;;;42.97;24.02;;;9.70;84.90;;;;;;5054350;28;20216;-58
2022/03/16 01:34:26;;;;;;;49.85;24.45;;;9.60;85.10;;;;;;5054336;28;20652;-60
2022/03/16 01:36:53;;;;;;;40.17;22.92;;;9.60;85.30;;;;;;5053326;28;20232;-58
2022/03/16 01:39:22;;;;;;;38.42;22.77;;;9.50;85.30;;;;;;5053089;28;20297;-58
2022/03/16 01:41:49;;;;;;;43.50;24.52;;;9.40;85.80;;;;;;5054344;28;20201;-58
2022/03/16 01:44:16;;;;;;;40.08;23.52;;;9.30;86.10;;;;;;5054465;28;20201;-58
2022/03/16 01:46:43;;;;;;;41.05;23.60;;;9.00;87.00;;;;;;5054058;28;20275;-58
2022/03/16 01:49:10;;;;;;;40.95;24.17;;;9.00;87.70;;;;;;5054221;28;20284;-58
2022/03/16 01:51:38;;;;;;;44.20;25.08;;;8.90;88.00;;;;;;5054322;28;20564;-58
2022/03/16 01:54:05;;;;;;;51.70;26.08;;;8.90;88.20;;;;;;5052816;28;20235;-58
2022/03/16 01:56:34;;;;;;;45.90;24.00;;;9.00;87.80;;;;;;5054183;28;20208;-59
2022/03/16 01:59:01;;;;;;;42.55;24.67;;;9.20;87.50;;;;;;5053940;28;20205;-58
2022/03/16 02:01:28;;;;;;;43.38;24.23;;;9.30;87.10;;;;;;5053780;28;20629;-58
2022/03/16 02:03:55;;;;;;;47.50;24.77;;;9.30;86.70;;;;;;5053958;28;20205;-58
2022/03/16 02:06:22;;;;;;;41.33;24.08;;;9.20;86.70;;;;;;5053791;28;20235;-58
2022/03/16 02:08:50;;;;;;;44.35;25.00;;;9.20;87.00;;;;;;5052595;28;20205;-58
2022/03/16 02:11:17;;;;;;;42.47;23.33;;;9.20;87.10;;;;;;5053769;28;20404;-58
2022/03/16 02:13:47;;;;;;;43.97;24.33;;;9.20;87.20;;;;;;5053626;28;20272;-58
2022/03/16 02:16:14;;;;;;;45.13;25.13;;;9.40;87.30;;;;;;5053466;28;20202;-58
2022/03/16 02:18:41;;;;;;;43.80;24.70;;;9.50;86.80;;;;;;5053658;28;20212;-58
2022/03/16 02:21:08;;;;;;;43.95;23.95;;;9.50;86.40;;;;;;5053616;28;20207;-58
2022/03/16 02:23:36;;;;;;;45.85;23.27;;;9.50;86.50;;;;;;5052262;28;20660;-58
2022/03/16 02:26:03;;;;;;;47.50;25.85;;;9.50;86.30;;;;;;5053534;28;20208;-58
2022/03/16 02:28:30;;;;;;;45.05;24.55;;;9.60;86.40;;;;;;5053647;28;20205;-58
2022/03/16 02:30:59;;;;;;;41.33;23.35;;;9.70;86.20;;;;;;5053252;28;20201;-59
2022/03/16 02:33:26;;;;;;;41.40;23.98;;;9.80;85.80;;;;;;5053281;28;20221;-60
2022/03/16 02:35:54;;;;;;;52.42;27.15;;;9.80;85.50;;;;;;5053301;28;20549;-60
2022/03/16 02:38:20;;;;;;;48.53;25.38;;;9.80;85.40;;;;;;5052014;28;20275;-60
2022/03/16 02:40:49;;;;;;;50.42;25.98;;;9.90;85.10;;;;;;5053219;28;20712;-60
2022/03/16 02:43:16;;;;;;;49.65;25.88;;;9.90;85.00;;;;;;5053181;28;20537;-60
2022/03/16 02:45:43;;;;;;;51.05;25.55;;;9.90;85.00;;;;;;5053215;28;20205;-58
2022/03/16 02:48:11;;;;;;;50.53;26.40;;;9.90;84.70;;;;;;5052647;28;20244;-58
2022/03/16 02:50:38;;;;;;;43.88;24.60;;;9.70;85.10;;;;;;5053237;28;20676;-58
2022/03/16 02:53:05;;;;;;;42.42;25.55;;;9.50;85.80;;;;;;5051716;28;20222;-58
2022/03/16 02:55:32;;;;;;;44.80;25.90;;;9.40;86.10;;;;;;5053068;28;20202;-58
2022/03/16 02:58:01;;;;;;;43.97;25.25;;;9.30;86.70;;;;;;5052877;28;20206;-58
2022/03/16 03:00:28;;;;;;;44.70;25.85;;;9.30;86.90;;;;;;5053105;28;20712;-58
2022/03/16 03:02:55;;;;;;;46.47;25.17;;;9.40;87.00;;;;;;5052757;28;20731;-60
2022/03/16 03:05:22;;;;;;;48.25;26.08;;;9.50;86.80;;;;;;5052922;28;20221;-60
2022/03/16 03:07:49;;;;;;;53.75;28.13;;;9.70;86.40;;;;;;5051657;28;20219;-60
2022/03/16 03:10:15;;;;;;;46.38;25.75;;;9.80;85.80;;;;;;5052770;28;20225;-60
2022/03/16 03:12:42;;;;;;;49.05;27.02;;;9.90;85.50;;;;;;5052875;28;20200;-60
2022/03/16 03:15:13;;;;;;;49.83;25.77;;;9.90;85.10;;;;;;5052855;28;20232;-60
2022/03/16 03:17:40;;;;;;;45.58;26.50;;;9.90;85.10;;;;;;5052624;28;20209;-60
2022/03/16 03:20:08;;;;;;;49.67;25.48;;;10.00;85.00;;;;;;5052826;28;20225;-60
2022/03/16 03:22:36;;;;;;;42.83;24.80;;;10.00;84.80;;;;;;5051476;28;20229;-60
2022/03/16 03:25:03;;;;;;;50.08;26.65;;;10.10;84.60;;;;;;5052695;28;20236;-59
2022/03/16 03:27:32;;;;;;;50.97;26.08;;;10.00;84.30;;;;;;5052799;28;20211;-60
2022/03/16 03:30:00;;;;;;;44.42;25.92;;;9.90;84.60;;;;;;5052691;28;20198;-59
2022/03/16 03:32:29;;;;;;;42.08;23.88;;;9.90;84.70;;;;;;5052516;28;20206;-58
2022/03/16 03:34:56;;;;;;;48.00;25.25;;;9.80;84.80;;;;;;5052577;28;20233;-59
2022/03/16 03:37:25;;;;;;;44.92;24.77;;;9.60;85.30;;;;;;5052269;28;20208;-58
2022/03/16 03:39:52;;;;;;;46.85;24.65;;;9.60;85.70;;;;;;5052174;28;20296;-60
2022/03/16 03:42:19;;;;;;;49.13;27.33;;;9.70;85.70;;;;;;5052780;28;20206;-60
2022/03/16 03:44:46;;;;;;;47.15;24.60;;;9.80;85.50;;;;;;5052552;28;20209;-58
2022/03/16 03:47:13;;;;;;;47.20;26.52;;;9.80;85.20;;;;;;5052386;28;20210;-60
2022/03/16 03:49:43;;;;;;;50.20;27.02;;;9.80;85.00;;;;;;5052453;28;20209;-58
2022/03/16 03:52:11;;;;;;;47.85;26.48;;;9.70;85.20;;;;;;5052340;28;20201;-58
2022/03/16 03:54:39;;;;;;;52.78;27.17;;;9.80;85.30;;;;;;5051170;28;20229;-58
2022/03/16 03:57:06;;;;;;;47.53;27.05;;;9.80;85.00;;;;;;5052470;28;20205;-57
2022/03/16 03:59:33;;;;;;;45.70;25.17;;;9.70;85.10;;;;;;5053743;28;20297;-58
2022/03/16 04:02:00;;;;;;;44.58;25.70;;;9.50;85.60;;;;;;5056113;28;20244;-58
2022/03/16 04:04:27;;;;;;;48.63;26.60;;;9.20;86.70;;;;;;5056153;28;20230;-58
2022/03/16 04:06:55;;;;;;;45.90;25.42;;;9.00;87.60;;;;;;5056065;28;20686;-58
2022/03/16 04:09:22;;;;;;;51.47;27.63;;;9.00;88.20;;;;;;5054916;28;20211;-58
2022/03/16 04:11:49;;;;;;;57.85;28.35;;;9.10;88.20;;;;;;5056060;28;20296;-58
2022/03/16 04:14:17;;;;;;;51.88;27.90;;;9.30;87.70;;;;;;5055875;28;20688;-60
2022/03/16 04:16:44;;;;;;;53.47;26.40;;;9.50;87.20;;;;;;5055768;28;20212;-60
2022/03/16 04:19:10;;;;;;;50.05;26.23;;;9.60;86.80;;;;;;5055704;28;20694;-60
2022/03/16 04:21:37;;;;;;;51.38;25.55;;;9.70;86.40;;;;;;5055730;28;20296;-60
2022/03/16 04:24:07;;;;;;;57.33;27.10;;;9.80;85.90;;;;;;5054468;28;20201;-60
2022/03/16 04:26:34;;;;;;;67.22;31.20;;;9.90;85.40;;;;;;5055866;28;20208;-60
2022/03/16 04:29:01;;;;;;;61.80;29.40;;;10.00;84.80;;;;;;5055632;28;20686;-60
2022/03/16 04:31:27;;;;;;;59.30;29.63;;;10.00;84.50;;;;;;5055479;28;20212;-60
2022/03/16 04:33:55;;;;;;;71.55;31.65;;;10.00;84.40;;;;;;5055460;28;20236;-60
2022/03/16 04:36:22;;;;;;;72.13;31.10;;;10.00;84.30;;;;;;5055730;28;20212;-60
2022/03/16 04:38:50;;;;;;;57.20;28.20;;;10.00;84.20;;;;;;5054318;28;20542;-60
2022/03/16 04:41:18;;;;;;;71.20;32.42;;;10.00;84.20;;;;;;5055575;28;20247;-60
2022/03/16 04:43:45;;;;;;;52.70;28.35;;;10.00;84.10;;;;;;5055529;28;20296;-60
2022/03/16 04:46:12;;;;;;;59.33;28.30;;;10.00;84.20;;;;;;5055339;28;20232;-60
2022/03/16 04:48:39;;;;;;;61.42;30.10;;;10.00;84.30;;;;;;5055271;28;20245;-60
2022/03/16 04:51:06;;;;;;;56.00;29.27;;;10.00;84.20;;;;;;5055313;28;20300;-60
2022/03/16 04:53:33;;;;;;;64.10;29.63;;;10.00;84.10;;;;;;5053986;28;20211;-60
2022/03/16 04:55:59;;;;;;;82.22;31.92;;;10.00;83.90;;;;;;5055165;28;20288;-60
2022/03/16 04:58:28;;;;;;;55.28;27.70;;;10.00;83.90;;;;;;5055268;28;20229;-60
2022/03/16 05:00:54;;;;;;;50.47;26.90;;;10.00;84.00;;;;;;5055130;28;20678;-60
2022/03/16 05:03:21;;;;;;;59.22;27.50;;;9.90;84.30;;;;;;5054971;28;20625;-60
2022/03/16 05:05:48;;;;;;;58.40;28.85;;;9.90;84.40;;;;;;5055032;28;20205;-60
2022/03/16 05:08:15;;;;;;;76.55;29.60;;;9.90;84.40;;;;;;5053597;28;20668;-60
2022/03/16 05:10:42;;;;;;;53.97;27.85;;;9.80;84.60;;;;;;5054813;28;20211;-60
2022/03/16 05:13:09;;;;;;;62.92;29.40;;;9.70;84.90;;;;;;5055045;28;20212;-60
2022/03/16 05:15:37;;;;;;;51.22;26.50;;;9.60;85.00;;;;;;5054692;28;20300;-57
2022/03/16 05:18:04;;;;;;;52.53;27.30;;;9.40;85.40;;;;;;5054596;28;20213;-57
2022/03/16 05:20:31;;;;;;;46.70;26.55;;;9.10;87.00;;;;;;5054787;28;20205;-57
2022/03/16 05:22:58;;;;;;;52.35;27.02;;;8.80;87.80;;;;;;5053381;28;20309;-57
2022/03/16 05:25:27;;;;;;;57.95;29.25;;;8.80;88.60;;;;;;5054698;28;20573;-57
2022/03/16 05:27:54;;;;;;;56.97;28.67;;;8.80;88.40;;;;;;5054641;28;20209;-57
2022/03/16 05:30:23;;;;;;;56.05;28.00;;;8.90;88.30;;;;;;5054504;28;20209;-57
2022/03/16 05:32:54;;;;;;;52.45;26.95;;;8.90;88.10;;;;;;5054298;28;20208;-58
2022/03/16 05:35:21;;;;;;;49.13;27.73;;;8.90;88.10;;;;;;5054413;28;20286;-58
2022/03/16 05:37:48;;;;;;;53.05;29.85;;;8.90;88.30;;;;;;5053043;28;20834;-57
2022/03/16 05:40:15;;;;;;;58.58;28.77;;;9.00;88.10;;;;;;5054400;28;20229;-60
2022/03/16 05:42:42;;;;;;;54.70;28.33;;;9.20;87.80;;;;;;5054131;28;20206;-60
2022/03/16 05:45:10;;;;;;;56.00;28.02;;;9.30;87.40;;;;;;5054230;28;20205;-60
2022/03/16 05:47:37;;;;;;;53.17;28.75;;;9.40;87.10;;;;;;5054118;28;20205;-59
2022/03/16 05:50:07;;;;;;;54.90;28.33;;;9.40;86.70;;;;;;5054141;28;20212;-60
2022/03/16 05:52:34;;;;;;;51.95;27.38;;;9.40;86.60;;;;;;5052809;28;20753;-60
2022/03/16 05:55:01;;;;;;;49.72;26.63;;;9.50;86.60;;;;;;5053971;28;20320;-60
2022/03/16 05:57:28;;;;;;;56.30;27.73;;;9.50;86.60;;;;;;5053999;28;20288;-60
2022/03/16 05:59:55;;;;;;;54.85;28.05;;;9.50;86.30;;;;;;5053967;28;20213;-60
2022/03/16 06:02:22;;;;;;;56.10;27.88;;;9.50;86.10;;;;;;5053847;28;20284;-58
2022/03/16 06:04:49;;;;;;;57.95;29.00;;;9.60;86.50;;;;;;5053783;28;20308;-58
2022/03/16 06:07:17;;;;;;;52.40;27.17;;;9.60;86.30;;;;;;5053841;28;20228;-58
2022/03/16 06:09:45;;;;;;;57.13;28.95;;;9.70;85.90;;;;;;5052473;28;20284;-58
2022/03/16 06:12:12;;;;;;;51.08;27.33;;;9.60;85.80;;;;;;5053722;28;20263;-58
2022/03/16 06:14:39;;;;;;;54.45;27.90;;;9.60;86.10;;;;;;5053703;28;20229;-58
2022/03/16 06:17:05;;;;;;;49.40;25.90;;;9.70;86.10;;;;;;5053641;28;20244;-58
2022/03/16 06:19:32;;;;;;;50.80;26.10;;;9.80;85.90;;;;;;5053630;28;20292;-58
2022/03/16 06:22:00;;;;;;;54.15;27.38;;;9.80;85.70;;;;;;5052936;28;20324;-58
2022/03/16 06:24:28;;;;;;;56.25;27.33;;;9.90;85.80;;;;;;5052169;28;20243;-58
2022/03/16 06:26:55;;;;;;;54.17;28.05;;;9.80;85.60;;;;;;5053545;28;20201;-58
2022/03/16 06:29:22;;;;;;;61.25;28.13;;;9.70;85.90;;;;;;5053450;28;20582;-58
2022/03/16 06:31:49;;;;;;;54.53;26.98;;;9.60;86.30;;;;;;5053266;28;20255;-58
2022/03/16 06:34:16;;;;;;;51.75;26.65;;;9.60;86.60;;;;;;5053235;28;20325;-58
2022/03/16 06:36:43;;;;;;;71.82;31.45;;;9.50;86.90;;;;;;5053364;28;20205;-58
2022/03/16 06:39:09;;;;;;;50.88;27.58;;;9.60;86.90;;;;;;5051833;28;20296;-58
2022/03/16 06:41:38;;;;;;;58.55;29.13;;;9.60;86.40;;;;;;5053176;28;20202;-58
2022/03/16 06:44:05;;;;;;;62.58;28.92;;;9.60;87.00;;;;;;5053185;28;20240;-58
2022/03/16 06:46:32;;;;;;;64.90;29.98;;;9.70;86.80;;;;;;5053155;28;20206;-58
2022/03/16 06:48:59;;;;;;;54.10;28.25;;;9.80;86.60;;;;;;5052875;28;20202;-58
2022/03/16 06:51:26;;;;;;;58.20;27.65;;;9.80;86.20;;;;;;5053020;28;20749;-58
2022/03/16 06:53:52;;;;;;;52.72;27.13;;;9.80;86.20;;;;;;5051608;28;20215;-58
2022/03/16 06:56:19;;;;;;;49.83;25.95;;;9.80;86.40;;;;;;5052918;28;20324;-58
2022/03/16 06:58:48;;;;;;;66.20;30.08;;;9.80;86.40;;;;;;5052906;28;20201;-58
2022/03/16 07:01:15;;;;;;;59.80;29.85;;;9.90;86.20;;;;;;5052891;28;20211;-58
2022/03/16 07:03:43;;;;;;;52.42;27.52;;;9.90;86.30;;;;;;5052652;28;20225;-58
2022/03/16 07:06:10;;;;;;;53.55;27.00;;;9.90;86.10;;;;;;5052749;28;20198;-58
2022/03/16 07:08:37;;;;;;;52.63;26.70;;;9.90;86.10;;;;;;5051486;28;20206;-58
2022/03/16 07:11:04;;;;;;;60.53;29.35;;;10.00;85.90;;;;;;5052809;28;20304;-58
2022/03/16 07:13:31;;;;;;;55.30;26.52;;;9.90;86.10;;;;;;5052794;28;20296;-58
2022/03/16 07:15:59;;;;;;;48.10;25.05;;;9.90;86.20;;;;;;5052640;28;20237;-59
2022/03/16 07:18:26;;;;;;;50.17;25.25;;;10.00;86.10;;;;;;5052492;28;20244;-58
2022/03/16 07:20:53;;;;;;;53.72;27.20;;;10.00;86.10;;;;;;5052599;28;20209;-58
2022/03/16 07:23:20;;;;;;;52.10;26.00;;;9.90;86.40;;;;;;5051512;28;20243;-60
2022/03/16 07:25:48;;;;;;;54.20;27.42;;;10.00;86.50;;;;;;5052669;28;20293;-58
2022/03/16 07:28:16;;;;;;;59.33;27.50;;;10.00;86.40;;;;;;5052566;28;20215;-60
2022/03/16 07:30:44;;;;;;;53.70;26.42;;;10.00;86.50;;;;;;5052551;28;20211;-61
2022/03/16 07:33:14;;;;;;;62.45;28.33;;;10.10;86.40;;;;;;5052397;28;20568;-60
2022/03/16 07:35:41;;;;;;;51.10;26.25;;;10.20;86.00;;;;;;5055913;28;20299;-59
2022/03/16 07:38:08;;;;;;;55.97;27.70;;;10.20;86.20;;;;;;5055316;28;20223;-57
2022/03/16 07:40:36;;;;;;;60.17;28.17;;;10.20;85.70;;;;;;5056621;28;20205;-59
2022/03/16 07:43:03;;;;;;;54.17;27.27;;;10.10;85.90;;;;;;5056616;28;20201;-60
2022/03/16 07:45:30;;;;;;;50.10;27.10;;;10.20;86.30;;;;;;5056584;28;20211;-59
2022/03/16 07:47:57;;;;;;;48.20;25.20;;;10.20;86.00;;;;;;5056178;28;20236;-59
2022/03/16 07:50:26;;;;;;;55.05;27.27;;;10.20;86.30;;;;;;5056516;28;20205;-59
2022/03/16 07:52:53;;;;;;;50.15;26.38;;;10.20;86.40;;;;;;5055119;28;20244;-60
2022/03/16 07:55:20;;;;;;;52.28;25.70;;;10.30;86.00;;;;;;5056369;28;20229;-59
2022/03/16 07:57:47;;;;;;;47.05;23.67;;;10.30;86.20;;;;;;5056390;28;20636;-59
2022/03/16 08:00:15;;;;;;;48.13;24.05;;;10.30;86.10;;;;;;5056283;28;20201;-59
2022/03/16 08:02:43;;;;;;;52.63;24.35;;;10.30;86.30;;;;;;5056049;28;20309;-59
2022/03/16 08:05:11;;;;;;;54.47;24.98;;;10.30;86.40;;;;;;5056156;28;20209;-60
2022/03/16 08:07:40;;;;;;;51.58;25.08;;;10.30;86.10;;;;;;5054808;28;20660;-59
2022/03/16 08:10:07;;;;;;;45.88;23.67;;;10.30;85.80;;;;;;5056245;28;20205;-59
2022/03/16 08:12:34;;;;;;;54.05;25.08;;;10.10;86.70;;;;;;5056127;28;20739;-59
2022/03/16 08:15:01;;;;;;;46.15;21.73;;;10.20;86.80;;;;;;5055750;28;20708;-59
2022/03/16 08:17:28;;;;;;;53.95;24.95;;;10.30;86.80;;;;;;5055959;28;20339;-60
2022/03/16 08:19:55;;;;;;;58.38;26.65;;;10.40;86.30;;;;;;5055921;28;20209;-58
2022/03/16 08:22:26;;;;;;;56.50;27.40;;;10.50;86.00;;;;;;5055862;28;20237;-58
2022/03/16 08:24:55;;;;;;;58.20;27.40;;;10.60;85.50;;;;;;5055346;28;20205;-58
2022/03/16 08:27:23;;;;;;;51.92;26.42;;;10.60;85.00;;;;;;5055818;28;20207;-58
2022/03/16 08:29:50;;;;;;;57.65;26.50;;;10.60;84.70;;;;;;5055721;28;20561;-58
2022/03/16 08:32:17;;;;;;;49.38;26.33;;;10.60;84.80;;;;;;5055552;28;20212;-58
2022/03/16 08:34:44;;;;;;;49.78;24.50;;;10.50;84.40;;;;;;5055561;28;20212;-58
2022/03/16 08:37:11;;;;;;;59.85;28.35;;;10.40;85.30;;;;;;5055538;28;20228;-58
2022/03/16 08:39:38;;;;;;;55.40;27.80;;;10.50;85.40;;;;;;5054199;28;20683;-58
2022/03/16 08:42:07;;;;;;;54.72;26.05;;;10.50;85.10;;;;;;5055405;28;20202;-58
2022/03/16 08:44:35;;;;;;;49.40;25.48;;;10.60;84.40;;;;;;5055193;28;20212;-58
2022/03/16 08:47:02;;;;;;;47.03;25.27;;;10.60;84.20;;;;;;5054983;28;20229;-58
2022/03/16 08:49:29;;;;;;;55.67;26.02;;;10.50;84.10;;;;;;5055239;28;20205;-58
2022/03/16 08:51:56;;;;;;;48.45;24.92;;;10.40;84.30;;;;;;5055368;28;20312;-58
2022/03/16 08:54:23;;;;;;;51.88;25.00;;;10.40;84.40;;;;;;5053976;28;20296;-58
2022/03/16 08:56:51;;;;;;;45.33;23.83;;;10.40;84.50;;;;;;5055037;28;20239;-58
2022/03/16 08:59:20;;;;;;;42.42;22.52;;;10.50;84.70;;;;;;5055241;28;20212;-58
2022/03/16 09:01:47;;;;;;;43.42;22.63;;;10.50;84.70;;;;;;5055065;28;20759;-58
2022/03/16 09:04:14;;;;;;;47.33;24.23;;;10.40;84.50;;;;;;5054990;28;20208;-58
2022/03/16 09:06:41;;;;;;;46.85;23.98;;;10.30;85.70;;;;;;5055175;28;20674;-58
2022/03/16 09:09:08;;;;;;;53.80;26.50;;;10.40;85.50;;;;;;5053816;28;20296;-58
2022/03/16 09:11:35;;;;;;;47.70;25.30;;;10.30;86.00;;;;;;5055006;28;20244;-58
2022/03/16 09:14:04;;;;;;;53.90;26.65;;;10.30;86.00;;;;;;5054990;28;20241;-58
2022/03/16 09:16:32;;;;;;;52.53;28.50;;;10.30;86.20;;;;;;5054785;28;20717;-58
2022/03/16 09:18:59;;;;;;;53.63;28.65;;;10.30;85.80;;;;;;5054753;28;20240;-58
2022/03/16 09:21:26;;;;;;;51.22;25.42;;;10.10;86.30;;;;;;5054778;28;20284;-58
2022/03/16 09:23:53;;;;;;;56.35;27.63;;;10.30;86.40;;;;;;5053147;28;20726;-58
2022/03/16 09:26:22;;;;;;;49.22;23.25;;;10.30;86.30;;;;;;5054739;28;20288;-58
2022/03/16 09:28:49;;;;;;;53.83;27.48;;;10.40;86.40;;;;;;5054639;28;20208;-58
2022/03/16 09:31:15;;;;;;;43.40;22.92;;;10.50;85.70;;;;;;5054558;28;20684;-58
2022/03/16 09:33:44;;;;;;;52.92;27.38;;;10.60;85.40;;;;;;5054440;28;20224;-58
2022/03/16 09:36:11;;;;;;;43.03;24.02;;;10.60;85.90;;;;;;5054336;28;20237;-58
2022/03/16 09:38:38;;;;;;;44.40;23.48;;;10.50;85.70;;;;;;5053135;28;20202;-58
2022/03/16 09:41:05;;;;;;;45.15;23.65;;;10.50;85.00;;;;;;5054534;28;20612;-58
2022/03/16 09:43:33;;;;;;;44.72;24.02;;;10.50;85.90;;;;;;5054434;28;20556;-58
2022/03/16 09:46:09;;;;;;;47.33;24.70;;;10.60;85.80;;;;;;5054269;28;20208;-58
2022/03/16 09:48:36;;;;;;;45.55;22.88;;;10.30;86.00;;;;;;5054064;28;20208;-58
2022/03/16 09:51:05;;;;;;;40.95;22.45;;;10.30;86.00;;;;;;5054211;28;20205;-58
2022/03/16 09:53:33;;;;;;;37.58;22.50;;;10.40;86.30;;;;;;5052957;28;20209;-58
2022/03/16 09:55:59;;;;;;;40.92;22.63;;;10.40;86.10;;;;;;5053862;28;20272;-58
2022/03/16 09:58:26;;;;;;;38.50;20.98;;;10.60;86.20;;;;;;5053192;28;20210;-58
2022/03/16 10:00:53;;;;;;;39.03;21.35;;;10.70;85.40;;;;;;5053984;28;20639;-58
2022/03/16 10:03:22;;;;;;;37.40;20.67;;;10.80;85.40;;;;;;5053792;28;20280;-58
2022/03/16 10:05:50;;;;;;;38.80;20.80;;;10.90;84.80;;;;;;5053871;28;20280;-58
2022/03/16 10:08:28;;;;;;;38.80;21.45;;;10.90;85.00;;;;;;5052676;28;20198;-57
2022/03/16 10:13:49;;;;;;;39.97;21.30;;;10.80;85.20;;;;;;5053706;28;20216;-57
2022/03/16 10:16:16;;;;;;;33.08;20.30;;;10.90;84.50;;;;;;5053633;28;20233;-58
2022/03/16 10:18:46;;;;;;;33.38;19.45;;;10.90;83.90;;;;;;5053583;28;20574;-57
2022/03/16 10:21:14;;;;;;;31.70;19.02;;;10.80;84.40;;;;;;5053507;28;20201;-58
2022/03/16 10:23:45;;;;;;;34.78;19.65;;;11.00;84.90;;;;;;5051967;28;20226;-57
2022/03/16 10:26:16;;;;;;;34.72;19.80;;;11.20;83.90;;;;;;5053585;28;20197;-57
2022/03/16 10:28:44;;;;;;;32.25;18.65;;;11.20;82.70;;;;;;5053409;28;20300;-58
2022/03/16 10:31:11;;;;;;;31.30;18.50;;;11.20;82.40;;;;;;5053332;28;20620;-59
2022/03/16 10:33:46;;;;;;;32.03;18.58;;;11.20;82.70;;;;;;5053271;28;20281;-58
2022/03/16 10:36:14;;;;;;;31.80;16.83;;;11.40;82.50;;;;;;5053299;28;20224;-59
2022/03/16 10:38:44;;;;;;;33.28;19.00;;;11.50;81.70;;;;;;5052120;28;20204;-57
2022/03/16 10:46:34;;;;;;;29.65;17.13;;;11.50;82.90;;;;;;5053300;28;20233;-59
2022/03/16 10:46:53;;;;;;;29.27;18.20;;;11.80;80.50;;;;;;5053073;28;20598;-59
2022/03/16 10:49:22;;;;;;;28.42;18.13;;;11.90;80.30;;;;;;5052916;28;20296;-59
2022/03/16 10:52:02;;;;;;;25.63;17.40;;;12.00;80.50;;;;;;5053195;28;20201;-59
2022/03/16 10:54:30;;;;;;;26.83;16.17;;;12.00;80.00;;;;;;5051761;28;20209;-59
2022/03/16 10:56:59;;;;;;;27.40;17.80;;;12.20;79.60;;;;;;5052946;28;20319;-59
2022/03/16 10:59:29;;;;;;;27.17;17.15;;;12.20;78.90;;;;;;5053129;28;20206;-59
2022/03/16 11:02:04;;;;;;;28.80;17.85;;;12.30;79.50;;;;;;5052765;28;20221;-59
2022/03/16 11:04:32;;;;;;;25.35;16.48;;;12.60;79.20;;;;;;5052785;28;20633;-59
2022/03/16 11:07:00;;;;;;;28.60;18.02;;;12.50;77.40;;;;;;5053017;28;20209;-59
2022/03/16 11:09:28;;;;;;;24.77;17.17;;;12.50;77.50;;;;;;5051388;28;20201;-59
2022/03/16 11:14:42;;;;;;;27.30;17.35;;;12.70;76.90;;;;;;5053024;28;20250;-59
2022/03/16 11:17:10;;;;;;;25.40;17.73;;;12.80;77.50;;;;;;5052708;28;20247;-58
2022/03/16 11:19:38;;;;;;;26.20;17.38;;;13.00;76.10;;;;;;5052643;28;20201;-59
2022/03/16 11:22:10;;;;;;;27.10;17.60;;;12.90;75.70;;;;;;5052739;28;20243;-59
2022/03/16 11:24:42;;;;;;;28.13;17.77;;;12.90;76.10;;;;;;5051738;28;20205;-59
2022/03/16 11:27:35;;;;;;;24.77;17.40;;;13.00;76.10;;;;;;5052665;28;20308;-59
2022/03/16 11:30:09;;;;;;;22.42;17.27;;;13.30;75.50;;;;;;5052639;28;20205;-59
2022/03/16 11:32:38;;;;;;;24.67;17.50;;;13.90;74.60;;;;;;5052609;28;20232;-59
2022/03/16 11:35:09;;;;;;;26.38;17.73;;;14.40;73.40;;;;;;5052587;28;20211;-59
2022/03/16 11:37:39;;;;;;;23.75;17.65;;;14.70;72.40;;;;;;5051206;28;20244;-59
2022/03/16 11:40:11;;;;;;;21.95;17.73;;;15.00;70.60;;;;;;5052519;28;20212;-59
2022/03/16 11:42:44;;;;;;;23.48;18.60;;;15.20;69.20;;;;;;5052482;28;20197;-59
2022/03/16 11:45:41;;;;;;;24.15;18.58;;;14.90;70.10;;;;;;5052403;28;20206;-59
2022/03/16 11:48:45;;;;;;;26.77;20.35;;;15.10;69.80;;;;;;5052220;28;20664;-59
2022/03/16 11:51:21;;;;;;;23.58;17.92;;;15.00;69.80;;;;;;5052422;28;20232;-59
2022/03/16 11:54:07;;;;;;;27.85;20.25;;;14.90;70.10;;;;;;5051150;28;20208;-59
2022/03/16 11:56:48;;;;;;;27.15;19.30;;;14.80;71.00;;;;;;5052355;28;20233;-59
2022/03/16 11:59:33;;;;;;;23.85;19.65;;;14.80;70.60;;;;;;5052445;28;20292;-59
2022/03/16 12:02:12;;;;;;;23.85;17.40;;;14.80;71.30;;;;;;5052270;28;20221;-59
2022/03/16 12:04:42;;;;;;;23.42;17.10;;;15.20;71.00;;;;;;5052105;28;20219;-59
2022/03/16 12:07:12;;;;;;;27.25;17.90;;;15.30;69.90;;;;;;5052338;28;20201;-59
2022/03/16 12:09:44;;;;;;;21.73;18.25;;;15.40;69.50;;;;;;5050951;28;20228;-59
2022/03/16 12:15:03;;;;;;;23.58;18.38;;;15.20;68.40;;;;;;5052351;28;20247;-59
2022/03/16 12:17:30;;;;;;;22.20;17.17;;;15.00;70.10;;;;;;5052092;28;20708;-59
2022/03/16 12:20:10;;;;;;;24.30;18.10;;;14.90;69.00;;;;;;5052255;28;20671;-59
2022/03/16 12:22:39;;;;;;;23.92;18.85;;;14.80;68.10;;;;;;5054458;28;20237;-59
2022/03/16 12:25:27;;;;;;;25.75;19.13;;;14.50;69.40;;;;;;5055933;28;20212;-59
2022/03/16 12:30:41;;;;;;;23.50;18.50;;;14.10;70.80;;;;;;5034766;28;20201;-59
2022/03/16 12:33:10;;;;;;;22.52;17.42;;;14.20;71.70;;;;;;5055634;28;20213;-59
2022/03/16 12:35:37;;;;;;;27.98;20.35;;;14.20;71.60;;;;;;5055697;28;20205;-59
2022/03/16 12:38:08;;;;;;;27.50;19.05;;;14.10;71.00;;;;;;5054148;28;20721;-59
2022/03/16 12:42:30;;;;;;;21.98;18.30;;;13.90;71.00;;;;;;5055657;28;20301;-59
2022/03/16 12:43:26;;;;;;;22.50;17.10;;;13.80;71.60;;;;;;5055425;28;20628;-59
2022/03/16 12:46:01;;;;;;;23.90;18.15;;;13.80;71.80;;;;;;5055491;28;20235;-57
2022/03/16 12:48:33;;;;;;;23.05;18.70;;;13.70;72.50;;;;;;5055178;28;20205;-58
2022/03/16 12:51:01;;;;;;;26.63;19.58;;;13.50;72.30;;;;;;5055315;28;20593;-58